createdAt,value
2018-08-17T00:02:01.770Z,65.54
2018-08-17T00:04:28.176Z,65.64
2018-08-17T00:06:54.511Z,65.46
2018-08-17T00:09:20.827Z,65.34
2018-08-17T00:11:47.134Z,65.34
2018-08-17T00:14:13.451Z,65.40
2018-08-17T00:16:39.759Z,65.36
2018-08-17T00:19:06.074Z,65.44
2018-08-17T00:21:32.395Z,65.94
2018-08-17T00:23:58.704Z,66.12
2018-08-17T00:26:25.024Z,66.25
2018-08-17T00:28:51.341Z,66.46
2018-08-17T00:31:17.653Z,66.80
2018-08-17T00:33:43.964Z,66.87
2018-08-17T00:36:10.267Z,67.05
2018-08-17T00:38:36.597Z,67.39
2018-08-17T00:41:02.905Z,67.46
2018-08-17T00:43:29.212Z,67.04
2018-08-17T00:45:55.521Z,67.64
2018-08-17T00:48:21.842Z,67.83
2018-08-17T00:50:48.154Z,68.23
2018-08-17T00:53:14.462Z,67.84
2018-08-17T00:55:40.767Z,67.92
2018-08-17T00:58:07.082Z,68.02
2018-08-17T01:00:33.387Z,67.81
2018-08-17T01:02:59.700Z,68.61
2018-08-17T01:05:26.030Z,68.10
2018-08-17T01:07:52.345Z,67.86
2018-08-17T01:10:18.651Z,68.17
2018-08-17T01:12:44.976Z,67.88
2018-08-17T01:15:11.284Z,67.84
2018-08-17T01:17:37.597Z,68.34
2018-08-17T01:20:03.907Z,68.50
2018-08-17T01:22:30.226Z,67.47
2018-08-17T01:24:56.537Z,66.97
2018-08-17T01:27:22.849Z,67.67
2018-08-17T01:29:49.157Z,68.34
2018-08-17T01:32:15.520Z,68.06
2018-08-17T01:34:41.826Z,68.18
2018-08-17T01:37:08.126Z,68.50
2018-08-17T01:39:34.435Z,68.79
2018-08-17T01:42:00.748Z,68.84
2018-08-17T01:44:27.062Z,68.64
2018-08-17T01:46:53.371Z,68.37
2018-08-17T01:49:19.680Z,68.53
2018-08-17T01:51:45.986Z,68.23
2018-08-17T01:54:12.294Z,68.79
2018-08-17T01:56:38.641Z,68.68
2018-08-17T01:59:04.947Z,68.68
2018-08-17T02:01:31.259Z,68.11
2018-08-17T02:03:57.563Z,67.99
2018-08-17T02:06:23.873Z,67.82
2018-08-17T02:08:50.220Z,67.67
2018-08-17T02:11:16.530Z,67.38
2018-08-17T02:13:42.835Z,67.81
2018-08-17T02:16:09.153Z,67.46
2018-08-17T02:18:35.464Z,67.21
2018-08-17T02:21:01.813Z,67.51
2018-08-17T02:23:28.129Z,68.20
2018-08-17T02:25:54.443Z,68.23
2018-08-17T02:28:20.799Z,68.08
2018-08-17T02:30:47.111Z,67.25
2018-08-17T02:33:13.432Z,66.54
2018-08-17T02:35:39.745Z,66.94
2018-08-17T02:38:06.055Z,66.75
2018-08-17T02:40:32.369Z,67.54
2018-08-17T02:42:58.680Z,67.52
2018-08-17T02:45:24.995Z,67.29
2018-08-17T02:47:51.315Z,67.31
2018-08-17T02:50:17.620Z,66.95
2018-08-17T02:52:43.934Z,67.26
2018-08-17T02:55:10.239Z,67.81
2018-08-17T02:57:36.557Z,67.93
2018-08-17T03:00:02.869Z,68.17
2018-08-17T03:02:29.182Z,68.14
2018-08-17T03:04:55.498Z,67.33
2018-08-17T03:07:21.812Z,67.31
2018-08-17T03:09:48.132Z,67.96
2018-08-17T03:12:14.446Z,68.08
2018-08-17T03:14:40.810Z,68.46
2018-08-17T03:17:07.115Z,68.89
2018-08-17T03:19:33.422Z,68.90
2018-08-17T03:21:59.738Z,69.06
2018-08-17T03:24:26.050Z,69.26
2018-08-17T03:26:52.368Z,69.21
2018-08-17T03:29:18.677Z,69.13
2018-08-17T03:31:44.988Z,69.35
2018-08-17T03:34:11.292Z,69.12
2018-08-17T03:36:37.606Z,69.96
2018-08-17T03:39:03.920Z,68.70
2018-08-17T03:41:30.228Z,68.94
2018-08-17T03:43:56.541Z,68.25
2018-08-17T03:46:22.889Z,68.70
2018-08-17T03:48:49.209Z,68.69
2018-08-17T03:51:15.562Z,68.86
2018-08-17T03:53:41.888Z,69.62
2018-08-17T03:56:08.194Z,69.69
2018-08-17T03:58:34.505Z,69.53
2018-08-17T04:01:00.808Z,69.59
2018-08-17T04:03:27.129Z,69.21
2018-08-17T04:05:53.436Z,67.86
2018-08-17T04:08:19.754Z,67.43
2018-08-17T04:10:46.063Z,67.77
2018-08-17T04:13:12.371Z,67.05
2018-08-17T04:15:38.687Z,66.94
2018-08-17T04:18:05.030Z,67.72
2018-08-17T04:20:31.348Z,68.52
2018-08-17T04:22:57.659Z,69.46
2018-08-17T04:25:23.968Z,70.12
2018-08-17T04:27:50.275Z,70.12
2018-08-17T04:30:16.585Z,70.15
2018-08-17T04:32:42.890Z,70.13
2018-08-17T04:35:09.204Z,70.49
2018-08-17T04:37:35.519Z,70.41
2018-08-17T04:40:01.830Z,70.34
2018-08-17T04:42:28.184Z,70.88
2018-08-17T04:44:54.496Z,70.95
2018-08-17T04:47:20.847Z,70.78
2018-08-17T04:49:47.160Z,70.84
2018-08-17T04:52:13.475Z,70.83
2018-08-17T04:54:39.779Z,70.74
2018-08-17T04:57:06.086Z,70.03
2018-08-17T04:59:32.397Z,69.76
2018-08-17T05:01:58.707Z,69.80
2018-08-17T05:04:25.035Z,69.29
2018-08-17T05:06:51.323Z,69.44
2018-08-17T05:09:17.642Z,69.43
2018-08-17T05:11:43.952Z,69.26
2018-08-17T05:14:10.264Z,68.89
2018-08-17T05:16:36.573Z,69.16
2018-08-17T05:19:02.885Z,69.33
2018-08-17T05:21:29.253Z,69.16
2018-08-17T05:23:55.552Z,68.67
2018-08-17T05:26:21.869Z,68.12
2018-08-17T05:28:48.171Z,67.36
2018-08-17T05:31:14.483Z,66.82
2018-08-17T05:33:40.797Z,66.20
2018-08-17T05:36:07.128Z,65.72
2018-08-17T05:38:33.466Z,64.24
2018-08-17T05:40:59.780Z,63.74
2018-08-17T05:43:26.083Z,62.64
2018-08-17T05:45:52.400Z,61.98
2018-08-17T05:48:18.712Z,62.35
2018-08-17T05:50:45.029Z,62.09
2018-08-17T05:53:11.336Z,62.32
2018-08-17T05:55:37.649Z,61.48
2018-08-17T05:58:03.957Z,60.88
2018-08-17T06:00:30.259Z,60.51
2018-08-17T06:02:56.645Z,60.72
2018-08-17T06:05:22.886Z,60.78
2018-08-17T06:07:49.197Z,60.67
2018-08-17T06:10:15.508Z,60.55
2018-08-17T06:12:41.820Z,60.05
2018-08-17T06:15:08.132Z,59.82
2018-08-17T06:17:34.445Z,59.69
2018-08-17T06:20:00.757Z,59.65
2018-08-17T06:22:27.096Z,59.34
2018-08-17T06:24:53.405Z,57.91
2018-08-17T06:27:19.729Z,58.54
2018-08-17T06:29:46.041Z,58.46
2018-08-17T06:32:12.359Z,57.55
2018-08-17T06:34:38.668Z,55.68
2018-08-17T06:37:05.006Z,51.12
2018-08-17T06:39:31.303Z,49.72
2018-08-17T06:41:57.616Z,48.42
2018-08-17T06:44:23.923Z,49.62
2018-08-17T06:46:50.279Z,51.19
2018-08-17T06:49:16.584Z,51.86
2018-08-17T06:51:42.942Z,50.39
2018-08-17T06:54:09.257Z,48.34
2018-08-17T06:56:35.563Z,46.18
2018-08-17T06:59:01.875Z,44.64
2018-08-17T07:01:28.191Z,45.36
2018-08-17T07:03:54.503Z,45.22
2018-08-17T07:06:20.817Z,44.20
2018-08-17T07:08:47.148Z,43.68
2018-08-17T07:11:13.430Z,43.22
2018-08-17T07:13:39.746Z,42.36
2018-08-17T07:16:06.059Z,43.67
2018-08-17T07:18:32.367Z,41.66
2018-08-17T07:20:58.679Z,41.91
2018-08-17T07:23:24.982Z,41.40
2018-08-17T07:25:51.292Z,41.47
2018-08-17T07:28:17.644Z,40.95
2018-08-17T07:30:43.902Z,41.25
2018-08-17T07:33:10.219Z,40.44
2018-08-17T07:35:36.571Z,40.13
2018-08-17T07:38:02.881Z,39.16
2018-08-17T07:40:29.184Z,39.23
2018-08-17T07:42:55.509Z,39.76
2018-08-17T07:45:21.816Z,39.19
2018-08-17T07:47:48.184Z,39.19
2018-08-17T07:50:14.450Z,39.11
2018-08-17T07:52:40.765Z,38.30
2018-08-17T07:55:07.077Z,38.90
2018-08-17T07:57:33.400Z,39.15
2018-08-17T07:59:59.739Z,39.01
2018-08-17T08:02:26.049Z,38.96
2018-08-17T08:04:52.410Z,39.16
2018-08-17T08:07:18.722Z,38.35
2018-08-17T08:09:45.039Z,38.05
2018-08-17T08:12:11.348Z,37.44
2018-08-17T08:14:37.666Z,37.54
2018-08-17T08:17:03.969Z,36.34
2018-08-17T08:19:30.292Z,37.43
2018-08-17T08:21:56.602Z,38.01
2018-08-17T08:24:22.916Z,37.42
2018-08-17T08:26:49.225Z,37.10
2018-08-17T08:29:15.531Z,36.25
2018-08-17T08:31:41.844Z,36.54
2018-08-17T08:34:08.155Z,36.38
2018-08-17T08:36:34.464Z,36.88
2018-08-17T08:39:00.783Z,36.11
2018-08-17T08:41:27.093Z,37.17
2018-08-17T08:43:53.403Z,36.79
2018-08-17T08:46:19.718Z,36.62
2018-08-17T08:48:46.113Z,37.29
2018-08-17T08:51:12.383Z,36.66
2018-08-17T08:53:38.693Z,35.69
2018-08-17T08:56:05.045Z,35.20
2018-08-17T08:58:31.307Z,34.86
2018-08-17T09:00:57.624Z,35.06
2018-08-17T09:03:23.942Z,34.93
2018-08-17T09:05:50.253Z,34.73
2018-08-17T09:08:16.648Z,34.93
2018-08-17T09:10:42.869Z,34.22
2018-08-17T09:13:09.175Z,33.42
2018-08-17T09:15:35.484Z,34.13
2018-08-17T09:18:01.792Z,34.30
2018-08-17T09:20:28.202Z,33.58
2018-08-17T09:22:54.412Z,33.61
2018-08-17T09:25:20.724Z,34.56
2018-08-17T09:27:47.037Z,33.69
2018-08-17T09:30:13.497Z,31.89
2018-08-17T09:32:39.656Z,34.12
2018-08-17T09:35:05.974Z,33.19
2018-08-17T09:37:32.288Z,33.86
2018-08-17T09:39:58.595Z,33.30
2018-08-17T09:42:24.906Z,33.68
2018-08-17T09:44:51.251Z,34.19
2018-08-17T09:47:17.561Z,33.54
2018-08-17T09:49:43.868Z,33.96
2018-08-17T09:52:10.245Z,32.24
2018-08-17T09:54:36.547Z,31.56
2018-08-17T09:57:02.855Z,31.54
2018-08-17T09:59:29.165Z,31.04
2018-08-17T10:01:55.484Z,30.42
2018-08-17T10:04:21.834Z,30.27
2018-08-17T10:06:48.145Z,31.13
2018-08-17T10:09:14.493Z,31.16
2018-08-17T10:11:40.806Z,30.73
2018-08-17T10:14:07.157Z,29.61
2018-08-17T10:16:33.472Z,29.79
2018-08-17T10:18:59.824Z,29.22
2018-08-17T10:21:26.454Z,27.88
2018-08-17T10:23:52.447Z,28.18
2018-08-17T10:26:18.763Z,27.77
2018-08-17T10:28:45.073Z,26.75
2018-08-17T10:31:11.391Z,25.97
2018-08-17T10:33:37.696Z,27.54
2018-08-17T10:36:04.014Z,29.00
2018-08-17T10:38:30.323Z,31.52
2018-08-17T10:40:56.672Z,31.36
2018-08-17T10:43:22.977Z,32.13
2018-08-17T10:45:49.289Z,32.98
2018-08-17T10:48:15.600Z,33.57
2018-08-17T10:50:41.913Z,34.27
2018-08-17T10:53:08.228Z,34.23
2018-08-17T10:55:34.564Z,34.37
2018-08-17T10:58:00.840Z,33.80
2018-08-17T11:00:27.187Z,34.24
2018-08-17T11:02:53.500Z,32.96
2018-08-17T11:05:19.846Z,32.80
2018-08-17T11:07:46.151Z,32.22
2018-08-17T11:10:12.468Z,32.74
2018-08-17T11:12:38.778Z,33.08
2018-08-17T11:15:05.088Z,33.22
2018-08-17T11:17:31.398Z,33.38
2018-08-17T11:19:57.743Z,32.87
2018-08-17T11:22:24.063Z,33.32
2018-08-17T11:24:50.371Z,33.88
2018-08-17T11:27:16.683Z,34.00
2018-08-17T11:29:43.031Z,34.25
2018-08-17T11:32:09.368Z,34.87
2018-08-17T11:34:35.673Z,34.88
2018-08-17T11:37:01.985Z,34.44
2018-08-17T11:39:28.294Z,34.06
2018-08-17T11:41:54.611Z,34.98
2018-08-17T11:44:20.975Z,35.14
2018-08-17T11:46:47.288Z,34.70
2018-08-17T11:49:13.610Z,35.17
2018-08-17T11:51:39.921Z,35.33
2018-08-17T11:54:06.273Z,36.12
2018-08-17T11:56:32.588Z,36.95
2018-08-17T11:58:58.895Z,37.50
2018-08-17T12:01:25.209Z,37.65
2018-08-17T12:03:51.523Z,37.60
2018-08-17T12:06:17.837Z,36.83
2018-08-17T12:08:44.205Z,36.75
2018-08-17T12:11:10.507Z,34.57
2018-08-17T12:13:36.860Z,33.12
2018-08-17T12:16:03.169Z,33.09
2018-08-17T12:18:29.536Z,32.28
2018-08-17T12:20:55.844Z,33.92
2018-08-17T12:23:22.152Z,34.57
2018-08-17T12:25:48.502Z,34.39
2018-08-17T12:28:14.815Z,35.27
2018-08-17T12:30:41.124Z,34.31
2018-08-17T12:33:07.447Z,32.89
2018-08-17T12:35:33.799Z,32.68
2018-08-17T12:38:00.113Z,32.74
2018-08-17T12:40:26.431Z,33.70
2018-08-17T12:42:52.778Z,33.75
2018-08-17T12:45:19.089Z,34.50
2018-08-17T12:47:45.407Z,34.47
2018-08-17T12:50:11.730Z,34.48
2018-08-17T12:52:38.057Z,35.35
2018-08-17T12:55:04.370Z,35.13
2018-08-17T12:57:30.743Z,34.54
2018-08-17T12:59:57.066Z,34.04
2018-08-17T13:02:23.377Z,34.01
2018-08-17T13:04:49.687Z,34.41
2018-08-17T13:07:15.997Z,35.04
2018-08-17T13:09:42.349Z,37.97
2018-08-17T13:12:08.663Z,40.35
2018-08-17T13:14:34.988Z,42.25
2018-08-17T13:17:01.294Z,42.60
2018-08-17T13:19:27.609Z,42.36
2018-08-17T13:21:53.932Z,42.44
2018-08-17T13:24:20.248Z,43.14
2018-08-17T13:26:46.568Z,43.01
2018-08-17T13:29:12.910Z,43.61
2018-08-17T13:31:39.225Z,43.71
2018-08-17T13:34:05.542Z,44.03
2018-08-17T13:36:31.856Z,44.06
2018-08-17T13:38:58.161Z,44.98
2018-08-17T13:41:24.477Z,45.83
2018-08-17T13:43:50.791Z,47.19
2018-08-17T13:46:17.135Z,47.55
2018-08-17T13:48:43.452Z,47.38
2018-08-17T13:51:09.779Z,48.42
2018-08-17T13:53:36.116Z,49.00
2018-08-17T13:56:02.440Z,49.71
2018-08-17T13:58:28.746Z,50.06
2018-08-17T14:00:55.060Z,49.79
2018-08-17T14:03:21.369Z,48.04
2018-08-17T14:05:47.686Z,47.64
2018-08-17T14:08:14.036Z,47.98
2018-08-17T14:10:40.323Z,47.45
2018-08-17T14:13:06.633Z,45.88
2018-08-17T14:15:32.966Z,43.94
2018-08-17T14:17:59.272Z,43.57
2018-08-17T14:20:25.595Z,44.08
2018-08-17T14:22:51.904Z,43.21
2018-08-17T14:25:18.226Z,43.96
2018-08-17T14:27:44.549Z,43.51
2018-08-17T14:30:10.914Z,43.40
2018-08-17T14:32:37.221Z,44.40
2018-08-17T14:35:03.588Z,44.53
2018-08-17T14:37:29.864Z,44.86
2018-08-17T14:39:56.176Z,45.54
2018-08-17T14:42:22.530Z,45.36
2018-08-17T14:44:48.854Z,45.02
2018-08-17T14:47:15.186Z,44.65
2018-08-17T14:49:41.527Z,44.22
2018-08-17T14:52:07.808Z,45.05
2018-08-17T14:54:34.125Z,45.33
2018-08-17T14:57:00.433Z,45.69
2018-08-17T14:59:26.743Z,45.91
2018-08-17T15:01:53.056Z,45.77
2018-08-17T15:04:19.365Z,45.39
2018-08-17T15:06:45.721Z,45.36
2018-08-17T15:09:12.037Z,44.86
2018-08-17T15:11:38.343Z,45.51
2018-08-17T15:14:04.651Z,44.67
2018-08-17T15:16:30.961Z,44.81
2018-08-17T15:18:57.272Z,44.77
2018-08-17T15:21:23.584Z,45.25
2018-08-17T15:23:49.896Z,45.17
2018-08-17T15:26:16.243Z,45.04
2018-08-17T15:28:42.685Z,45.78
2018-08-17T15:31:08.926Z,47.21
2018-08-17T15:33:35.231Z,47.26
2018-08-17T15:36:01.559Z,47.55
2018-08-17T15:38:27.867Z,48.41
2018-08-17T15:40:54.257Z,49.43
2018-08-17T15:43:20.501Z,50.45
2018-08-17T15:45:46.817Z,51.13
2018-08-17T15:48:13.132Z,52.24
2018-08-17T15:50:39.444Z,52.23
2018-08-17T15:53:05.747Z,52.86
2018-08-17T15:55:32.106Z,50.62
2018-08-17T15:57:58.497Z,50.44
2018-08-17T16:00:24.737Z,50.34
2018-08-17T16:02:51.054Z,51.76
2018-08-17T16:05:17.360Z,52.11
2018-08-17T16:07:43.676Z,52.57
2018-08-17T16:10:09.984Z,52.79
2018-08-17T16:12:36.297Z,52.60
2018-08-17T16:15:02.611Z,52.99
2018-08-17T16:17:28.927Z,52.76
2018-08-17T16:19:55.235Z,52.58
2018-08-17T16:22:21.590Z,51.84
2018-08-17T16:24:47.986Z,51.71
2018-08-17T16:27:14.223Z,51.46
2018-08-17T16:29:40.530Z,51.40
2018-08-17T16:32:06.841Z,51.10
2018-08-17T16:34:33.150Z,51.67
2018-08-17T16:36:59.460Z,51.89
2018-08-17T16:39:25.770Z,51.96
2018-08-17T16:41:52.136Z,51.55
2018-08-17T16:44:18.446Z,51.39
2018-08-17T16:46:44.754Z,51.66
2018-08-17T16:49:11.099Z,51.32
2018-08-17T16:51:37.405Z,50.98
2018-08-17T16:54:03.721Z,50.16
2018-08-17T16:56:30.033Z,49.98
2018-08-17T16:58:56.447Z,49.70
2018-08-17T17:01:22.693Z,50.08
2018-08-17T17:03:49.008Z,50.01
2018-08-17T17:06:15.320Z,50.40
2018-08-17T17:08:41.654Z,50.98
2018-08-17T17:11:07.965Z,50.31
2018-08-17T17:13:34.267Z,50.98
2018-08-17T17:16:00.582Z,50.63
2018-08-17T17:18:26.896Z,50.32
2018-08-17T17:20:53.318Z,50.80
2018-08-17T17:23:19.548Z,50.65
2018-08-17T17:25:45.868Z,50.39
2018-08-17T17:28:12.182Z,50.59
2018-08-17T17:30:38.494Z,50.85
2018-08-17T17:33:04.798Z,51.16
2018-08-17T17:35:31.108Z,52.09
2018-08-17T17:37:57.419Z,52.28
2018-08-17T17:40:23.727Z,52.66
2018-08-17T17:42:50.038Z,53.07
2018-08-17T17:45:16.350Z,54.01
2018-08-17T17:47:42.656Z,53.22
2018-08-17T17:50:08.973Z,52.95
2018-08-17T17:52:35.279Z,53.50
2018-08-17T17:55:01.593Z,54.25
2018-08-17T17:57:27.931Z,53.35
2018-08-17T17:59:54.280Z,53.39
2018-08-17T18:02:20.587Z,53.98
2018-08-17T18:04:46.959Z,54.86
2018-08-17T18:07:13.213Z,55.07
2018-08-17T18:09:39.590Z,55.11
2018-08-17T18:12:05.895Z,55.59
2018-08-17T18:14:32.226Z,55.97
2018-08-17T18:16:58.542Z,56.00
2018-08-17T18:19:24.851Z,56.40
2018-08-17T18:21:51.177Z,56.70
2018-08-17T18:24:17.487Z,57.21
2018-08-17T18:26:43.812Z,57.40
2018-08-17T18:29:10.115Z,57.83
2018-08-17T18:31:36.423Z,58.18
2018-08-17T18:34:02.735Z,58.46
2018-08-17T18:36:29.112Z,58.17
2018-08-17T18:38:55.393Z,58.45
2018-08-17T18:41:21.703Z,58.46
2018-08-17T18:43:48.009Z,58.91
2018-08-17T18:46:14.341Z,59.60
2018-08-17T18:48:40.643Z,60.26
2018-08-17T18:51:06.957Z,60.33
2018-08-17T18:53:33.276Z,60.62
2018-08-17T18:55:59.583Z,61.17
2018-08-17T18:58:25.888Z,61.54
2018-08-17T19:00:52.205Z,61.60
2018-08-17T19:03:18.531Z,62.28
2018-08-17T19:05:44.844Z,62.45
2018-08-17T19:08:11.171Z,62.92
2018-08-17T19:10:37.497Z,63.30
2018-08-17T19:13:03.803Z,63.57
2018-08-17T19:15:30.137Z,63.74
2018-08-17T19:17:56.423Z,64.02
2018-08-17T19:20:22.730Z,63.96
2018-08-17T19:22:49.054Z,64.12
2018-08-17T19:25:15.371Z,64.33
2018-08-17T19:27:41.676Z,64.33
2018-08-17T19:30:08.038Z,64.53
2018-08-17T19:32:34.348Z,64.77
2018-08-17T19:35:00.674Z,65.60
2018-08-17T19:37:26.982Z,65.76
2018-08-17T19:39:53.309Z,65.87
2018-08-17T19:42:19.615Z,66.52
2018-08-17T19:44:46.794Z,66.73
2018-08-17T19:47:13.105Z,66.97
2018-08-17T19:49:39.432Z,67.39
2018-08-17T19:52:05.745Z,67.74
2018-08-17T19:54:32.065Z,67.66
2018-08-17T19:56:58.383Z,67.87
2018-08-17T19:59:24.907Z,67.73
2018-08-17T20:01:51.221Z,68.23
2018-08-17T20:04:17.543Z,68.60
2018-08-17T20:06:43.859Z,69.24
2018-08-17T20:09:10.187Z,69.56
2018-08-17T20:11:36.491Z,69.80
2018-08-17T20:14:02.800Z,69.82
2018-08-17T20:16:29.106Z,69.77
2018-08-17T20:18:55.411Z,69.79
2018-08-17T20:21:21.717Z,69.88
2018-08-17T20:23:48.027Z,70.50
2018-08-17T20:26:14.367Z,70.79
2018-08-17T20:28:40.648Z,71.39
2018-08-17T20:31:06.957Z,71.37
2018-08-17T20:33:33.264Z,71.47
2018-08-17T20:35:59.575Z,71.69
2018-08-17T20:38:25.896Z,72.06
2018-08-17T20:40:52.219Z,71.64
2018-08-17T20:43:18.533Z,71.81
2018-08-17T20:45:44.839Z,71.61
2018-08-17T20:48:11.144Z,71.97
2018-08-17T20:50:37.470Z,72.08
2018-08-17T20:53:03.805Z,71.78
2018-08-17T20:55:30.117Z,71.95
2018-08-17T20:57:56.425Z,72.22
2018-08-17T21:00:22.777Z,71.47
2018-08-17T21:02:49.067Z,71.77
2018-08-17T21:05:15.380Z,71.87
2018-08-17T21:07:41.696Z,72.48
2018-08-17T21:10:08.048Z,72.87
2018-08-17T21:12:34.361Z,73.62
2018-08-17T21:15:00.666Z,73.75
2018-08-17T21:17:26.978Z,74.40
2018-08-17T21:19:53.283Z,74.92
2018-08-17T21:22:19.591Z,75.05
2018-08-17T21:24:45.900Z,74.82
2018-08-17T21:27:12.212Z,74.96
2018-08-17T21:29:38.667Z,76.47
2018-08-17T21:32:04.867Z,76.84
2018-08-17T21:34:31.221Z,77.19
2018-08-17T21:36:57.528Z,77.19
2018-08-17T21:39:23.849Z,76.73
2018-08-17T21:41:50.248Z,76.59
2018-08-17T21:44:16.480Z,75.71
2018-08-17T21:46:42.797Z,75.17
2018-08-17T21:49:09.103Z,74.75
2018-08-17T21:51:35.418Z,74.29
2018-08-17T21:54:01.731Z,74.33
2018-08-17T21:56:28.041Z,74.38
2018-08-17T21:58:54.348Z,74.56
2018-08-17T22:01:20.696Z,74.18
2018-08-17T22:03:47.011Z,74.93
2018-08-17T22:06:13.321Z,75.32
2018-08-17T22:08:39.630Z,75.60
2018-08-17T22:11:05.942Z,75.87
2018-08-17T22:13:32.247Z,75.44
2018-08-17T22:15:58.550Z,75.31
2018-08-17T22:18:24.908Z,74.79
2018-08-17T22:20:51.166Z,74.96
2018-08-17T22:23:17.471Z,75.49
2018-08-17T22:25:43.780Z,75.70
2018-08-17T22:28:10.092Z,75.98
2018-08-17T22:30:36.403Z,75.62
2018-08-17T22:33:02.713Z,75.22
2018-08-17T22:35:29.086Z,75.80
2018-08-17T22:37:55.333Z,75.90
2018-08-17T22:40:21.645Z,75.44
2018-08-17T22:42:47.988Z,75.99
2018-08-17T22:45:14.281Z,76.16
2018-08-17T22:47:40.593Z,76.25
2018-08-17T22:50:06.906Z,76.65
2018-08-17T22:52:33.222Z,77.29
2018-08-17T22:54:59.534Z,77.81
2018-08-17T22:57:25.845Z,78.33
2018-08-17T22:59:52.157Z,78.02
2018-08-17T23:02:18.467Z,77.95
2018-08-17T23:04:44.780Z,78.25
2018-08-17T23:07:11.091Z,78.59
2018-08-17T23:09:37.415Z,79.22
2018-08-17T23:12:03.723Z,78.69
2018-08-17T23:14:30.028Z,78.38
2018-08-17T23:16:56.343Z,79.02
2018-08-17T23:19:22.651Z,78.55
2018-08-17T23:21:48.964Z,78.18
2018-08-17T23:24:15.278Z,78.42
2018-08-17T23:26:41.588Z,78.60
2018-08-17T23:29:07.894Z,78.09
2018-08-17T23:31:34.207Z,77.47
2018-08-17T23:34:00.515Z,77.70
2018-08-17T23:36:26.830Z,78.46
2018-08-17T23:38:53.140Z,77.83
2018-08-17T23:41:19.460Z,78.09
2018-08-17T23:43:45.765Z,77.90
2018-08-17T23:46:12.083Z,77.45
2018-08-17T23:48:38.387Z,77.75
2018-08-17T23:51:04.700Z,77.37
2018-08-17T23:53:31.062Z,76.68
2018-08-17T23:55:57.352Z,76.78
2018-08-17T23:58:23.698Z,77.01
